createdAt,value
2019-05-02T00:00:43.109Z,6.61
2019-05-02T00:01:43.126Z,6.55
2019-05-02T00:02:43.134Z,6.54
2019-05-02T00:03:43.146Z,6.56
2019-05-02T00:04:43.156Z,6.52
2019-05-02T00:05:43.171Z,6.58
2019-05-02T00:06:44.221Z,6.58
2019-05-02T00:07:43.195Z,6.64
2019-05-02T00:08:43.204Z,6.62
2019-05-02T00:09:48.583Z,6.55
2019-05-02T00:10:43.227Z,6.55
2019-05-02T00:11:43.241Z,6.56
2019-05-02T00:12:43.255Z,6.56
2019-05-02T00:13:43.267Z,6.49
2019-05-02T00:14:43.275Z,6.51
2019-05-02T00:15:43.289Z,6.44
2019-05-02T00:16:45.027Z,6.43
2019-05-02T00:17:43.314Z,6.41
2019-05-02T00:18:43.324Z,6.43
2019-05-02T00:19:44.983Z,6.41
2019-05-02T00:20:43.344Z,6.37
2019-05-02T00:21:43.356Z,6.38
2019-05-02T00:22:43.383Z,6.34
2019-05-02T00:23:43.379Z,6.31
2019-05-02T00:24:43.391Z,6.36
2019-05-02T00:25:47.348Z,6.37
2019-05-02T00:26:43.415Z,6.33
2019-05-02T00:27:43.428Z,6.40
2019-05-02T00:28:47.911Z,6.37
2019-05-02T00:29:43.454Z,6.28
2019-05-02T00:30:43.465Z,6.31
2019-05-02T00:31:46.984Z,6.30
2019-05-02T00:32:43.484Z,6.22
2019-05-02T00:33:43.500Z,6.30
2019-05-02T00:34:43.512Z,6.21
2019-05-02T00:35:46.242Z,6.15
2019-05-02T00:36:43.535Z,6.09
2019-05-02T00:37:43.546Z,6.08
2019-05-02T00:38:43.557Z,6.09
2019-05-02T00:39:45.131Z,6.00
2019-05-02T00:40:46.240Z,5.99
2019-05-02T00:41:43.589Z,6.00
2019-05-02T00:42:43.604Z,6.00
2019-05-02T00:43:43.614Z,6.06
2019-05-02T00:44:46.819Z,5.97
2019-05-02T00:45:43.639Z,6.03
2019-05-02T00:46:43.671Z,6.04
2019-05-02T00:47:47.899Z,6.03
2019-05-02T00:48:43.667Z,6.04
2019-05-02T00:49:43.679Z,6.06
2019-05-02T00:50:45.386Z,6.09
2019-05-02T00:51:43.700Z,5.97
2019-05-02T00:52:43.714Z,6.00
2019-05-02T00:53:44.429Z,6.08
2019-05-02T00:54:43.737Z,6.14
2019-05-02T00:55:43.751Z,6.01
2019-05-02T00:56:44.377Z,6.09
2019-05-02T00:57:43.773Z,6.11
2019-05-02T00:58:43.787Z,6.11
2019-05-02T00:59:43.796Z,6.08
2019-05-02T01:00:43.809Z,6.09
2019-05-02T01:01:43.830Z,6.08
2019-05-02T01:02:43.832Z,6.03
2019-05-02T01:03:47.293Z,6.03
2019-05-02T01:04:43.853Z,6.03
2019-05-02T01:05:43.864Z,6.06
2019-05-02T01:06:44.779Z,6.01
2019-05-02T01:07:43.883Z,5.97
2019-05-02T01:08:43.893Z,6.01
2019-05-02T01:09:46.910Z,5.91
2019-05-02T01:10:43.921Z,5.91
2019-05-02T01:11:43.931Z,5.81
2019-05-02T01:12:45.964Z,5.82
2019-05-02T01:13:43.949Z,5.76
2019-05-02T01:14:43.965Z,5.76
2019-05-02T01:15:44.355Z,5.75
2019-05-02T01:16:43.984Z,5.83
2019-05-02T01:17:43.998Z,5.74
2019-05-02T01:18:44.007Z,5.74
2019-05-02T01:19:47.153Z,5.68
2019-05-02T01:20:44.031Z,5.67
2019-05-02T01:21:44.042Z,5.76
2019-05-02T01:22:47.258Z,5.75
2019-05-02T01:23:44.061Z,5.67
2019-05-02T01:24:44.074Z,5.68
2019-05-02T01:25:47.254Z,5.64
2019-05-02T01:26:44.096Z,5.67
2019-05-02T01:27:44.131Z,5.68
2019-05-02T01:28:44.119Z,5.68
2019-05-02T01:29:44.127Z,5.67
2019-05-02T01:30:44.136Z,5.72
2019-05-02T01:31:44.147Z,5.79
2019-05-02T01:32:44.158Z,5.79
2019-05-02T01:33:44.176Z,5.78
2019-05-02T01:34:44.185Z,5.78
2019-05-02T01:35:44.194Z,5.78
2019-05-02T01:36:44.207Z,5.74
2019-05-02T01:37:44.214Z,5.76
2019-05-02T01:38:44.229Z,5.76
2019-05-02T01:39:44.238Z,5.82
2019-05-02T01:40:48.121Z,5.75
2019-05-02T01:41:44.257Z,5.75
2019-05-02T01:42:48.627Z,5.75
2019-05-02T01:43:44.280Z,5.78
2019-05-02T01:44:44.290Z,5.74
2019-05-02T01:45:46.597Z,5.78
2019-05-02T01:46:44.313Z,5.75
2019-05-02T01:47:44.325Z,5.78
2019-05-02T01:48:45.902Z,5.78
2019-05-02T01:49:44.347Z,5.76
2019-05-02T01:50:44.359Z,5.68
2019-05-02T01:51:47.651Z,5.61
2019-05-02T01:52:44.403Z,5.68
2019-05-02T01:53:44.388Z,5.68
2019-05-02T01:54:45.801Z,5.67
2019-05-02T01:55:44.414Z,5.67
2019-05-02T01:56:44.426Z,5.54
2019-05-02T01:57:45.059Z,5.53
2019-05-02T01:58:44.447Z,5.54
2019-05-02T01:59:44.453Z,5.51
2019-05-02T02:00:45.883Z,5.51
2019-05-02T02:01:44.479Z,5.54
2019-05-02T02:02:44.492Z,5.51
2019-05-02T02:03:45.636Z,5.45
2019-05-02T02:04:44.506Z,5.57
2019-05-02T02:05:44.522Z,5.53
2019-05-02T02:06:45.162Z,5.63
2019-05-02T02:07:44.542Z,5.65
2019-05-02T02:08:44.553Z,5.60
2019-05-02T02:09:45.823Z,5.60
2019-05-02T02:10:44.577Z,5.61
2019-05-02T02:11:44.585Z,5.65
2019-05-02T02:13:02.438Z,5.72
2019-05-02T02:13:44.607Z,5.79
2019-05-02T02:14:48.065Z,5.75
2019-05-02T02:15:44.631Z,5.78
2019-05-02T02:16:44.685Z,5.79
2019-05-02T02:17:46.771Z,5.68
2019-05-02T02:18:44.664Z,5.64
2019-05-02T02:19:44.668Z,5.60
2019-05-02T02:20:45.193Z,5.68
2019-05-02T02:21:44.690Z,5.58
2019-05-02T02:22:44.705Z,5.65
2019-05-02T02:23:44.959Z,5.61
2019-05-02T02:24:44.722Z,5.60
2019-05-02T02:25:44.732Z,5.63
2019-05-02T02:26:48.281Z,5.64
2019-05-02T02:27:44.755Z,5.63
2019-05-02T02:28:44.766Z,5.64
2019-05-02T02:29:45.382Z,5.60
2019-05-02T02:30:44.791Z,5.64
2019-05-02T02:31:46.894Z,5.65
2019-05-02T02:32:44.808Z,5.58
2019-05-02T02:33:48.104Z,5.63
2019-05-02T02:34:44.833Z,5.61
2019-05-02T02:35:50.399Z,5.58
2019-05-02T02:36:44.852Z,5.56
2019-05-02T02:37:52.061Z,5.57
2019-05-02T02:38:44.873Z,5.53
2019-05-02T02:39:48.567Z,5.45
2019-05-02T02:40:44.895Z,5.48
2019-05-02T02:41:45.356Z,5.54
2019-05-02T02:42:44.919Z,5.51
2019-05-02T02:43:44.929Z,5.56
2019-05-02T02:44:44.934Z,5.54
2019-05-02T02:45:44.950Z,5.51
2019-05-02T02:46:44.960Z,5.48
2019-05-02T02:47:44.971Z,5.51
2019-05-02T02:48:44.987Z,5.53
2019-05-02T02:49:44.998Z,5.45
2019-05-02T02:50:45.360Z,5.36
2019-05-02T02:51:45.017Z,5.38
2019-05-02T02:52:47.115Z,5.35
2019-05-02T02:53:45.041Z,5.36
2019-05-02T02:54:45.105Z,5.43
2019-05-02T02:55:45.061Z,5.36
2019-05-02T02:56:45.063Z,5.38
2019-05-02T02:57:45.075Z,5.43
2019-05-02T02:58:47.575Z,5.42
2019-05-02T02:59:45.100Z,5.43
2019-05-02T03:00:47.726Z,5.33
2019-05-02T03:01:45.115Z,5.42
2019-05-02T03:02:48.630Z,5.43
2019-05-02T03:03:45.139Z,5.42
2019-05-02T03:04:46.386Z,5.35
2019-05-02T03:05:45.163Z,5.35
2019-05-02T03:06:47.138Z,5.35
2019-05-02T03:07:45.178Z,5.42
2019-05-02T03:08:48.762Z,5.35
2019-05-02T03:09:45.201Z,5.33
2019-05-02T03:10:46.640Z,5.28
2019-05-02T03:11:45.226Z,5.36
2019-05-02T03:12:45.238Z,5.30
2019-05-02T03:13:52.570Z,5.22
2019-05-02T03:14:47.176Z,5.21
2019-05-02T03:15:45.264Z,5.21
2019-05-02T03:16:47.191Z,5.12
2019-05-02T03:17:45.289Z,5.18
2019-05-02T03:18:45.299Z,5.17
2019-05-02T03:19:45.313Z,5.22
2019-05-02T03:20:45.320Z,5.18
2019-05-02T03:21:45.334Z,5.21
2019-05-02T03:22:45.338Z,5.13
2019-05-02T03:23:45.351Z,5.10
2019-05-02T03:24:46.798Z,5.15
2019-05-02T03:25:50.462Z,5.17
2019-05-02T03:26:48.685Z,5.18
2019-05-02T03:27:45.394Z,5.20
2019-05-02T03:28:45.418Z,5.17
2019-05-02T03:29:45.410Z,5.22
2019-05-02T03:30:45.426Z,5.22
2019-05-02T03:31:45.438Z,5.30
2019-05-02T03:33:03.592Z,5.24
2019-05-02T03:33:54.804Z,5.22
2019-05-02T03:34:48.330Z,5.28
2019-05-02T03:35:49.085Z,5.24
2019-05-02T03:36:45.485Z,5.22
2019-05-02T03:37:51.527Z,5.20
2019-05-02T03:38:45.516Z,5.25
2019-05-02T03:39:49.546Z,5.30
2019-05-02T03:40:45.528Z,5.24
2019-05-02T03:41:45.542Z,5.25
2019-05-02T03:42:47.655Z,5.22
2019-05-02T03:43:45.555Z,5.22
2019-05-02T03:44:55.166Z,5.24
2019-05-02T03:45:45.589Z,5.21
2019-05-02T03:46:45.586Z,5.24
2019-05-02T03:47:46.528Z,5.21
2019-05-02T03:48:45.620Z,5.24
2019-05-02T03:49:48.983Z,5.25
2019-05-02T03:50:45.634Z,5.22
2019-05-02T03:51:45.645Z,5.17
2019-05-02T03:52:46.455Z,5.04
2019-05-02T03:53:45.658Z,5.09
2019-05-02T03:54:50.090Z,5.13
2019-05-02T03:55:45.680Z,5.10
2019-05-02T03:56:51.175Z,5.04
2019-05-02T03:57:45.709Z,5.06
2019-05-02T03:58:48.573Z,5.06
2019-05-02T03:59:45.722Z,5.06
2019-05-02T04:00:45.748Z,5.06
2019-05-02T04:01:45.759Z,5.03
2019-05-02T04:02:45.763Z,5.02
2019-05-02T04:03:45.766Z,5.10
2019-05-02T04:04:45.773Z,5.03
2019-05-02T04:05:45.782Z,5.02
2019-05-02T04:06:45.799Z,5.07
2019-05-02T04:07:45.806Z,5.02
2019-05-02T04:08:45.817Z,5.03
2019-05-02T04:09:45.823Z,5.02
2019-05-02T04:10:45.834Z,5.06
2019-05-02T04:11:45.850Z,4.97
2019-05-02T04:12:45.854Z,5.03
2019-05-02T04:13:45.867Z,5.06
2019-05-02T04:14:45.886Z,5.10
2019-05-02T04:15:45.893Z,5.10
2019-05-02T04:16:48.550Z,5.10
2019-05-02T04:17:45.904Z,5.07
2019-05-02T04:18:54.603Z,5.15
2019-05-02T04:19:45.927Z,5.13
2019-05-02T04:20:49.726Z,5.12
2019-05-02T04:21:50.394Z,5.13
2019-05-02T04:22:48.997Z,5.17
2019-05-02T04:23:45.966Z,5.18
2019-05-02T04:24:54.540Z,5.18
2019-05-02T04:25:46.006Z,5.20
2019-05-02T04:26:53.797Z,5.22
2019-05-02T04:27:46.006Z,5.24
2019-05-02T04:28:51.886Z,5.20
2019-05-02T04:29:46.025Z,5.24
2019-05-02T04:30:51.162Z,5.24
2019-05-02T04:31:46.047Z,5.18
2019-05-02T04:32:49.582Z,5.21
2019-05-02T04:33:46.071Z,5.17
2019-05-02T04:34:48.863Z,5.10
2019-05-02T04:35:46.088Z,5.12
2019-05-02T04:36:47.127Z,5.10
2019-05-02T04:37:46.115Z,5.06
2019-05-02T04:38:51.105Z,5.04
2019-05-02T04:39:48.882Z,5.09
2019-05-02T04:40:47.236Z,5.04
2019-05-02T04:41:48.610Z,4.99
2019-05-02T04:42:53.352Z,5.03
2019-05-02T04:43:51.460Z,5.12
2019-05-02T04:45:08.773Z,5.12
2019-05-02T04:45:55.824Z,5.06
2019-05-02T04:46:48.234Z,5.13
2019-05-02T04:47:57.429Z,5.15
2019-05-02T04:48:49.835Z,5.21
2019-05-02T04:49:51.360Z,5.20
2019-05-02T04:50:48.225Z,5.24
2019-05-02T04:51:50.668Z,5.30
2019-05-02T04:52:52.214Z,5.28
2019-05-02T04:53:49.495Z,5.31
2019-05-02T04:54:48.576Z,5.33
2019-05-02T04:55:52.482Z,5.30
2019-05-02T04:56:52.356Z,5.35
2019-05-02T04:57:50.576Z,5.45
2019-05-02T04:58:49.001Z,5.39
2019-05-02T04:59:50.126Z,5.43
2019-05-02T05:00:53.491Z,5.39
2019-05-02T05:01:52.758Z,5.36
2019-05-02T05:02:48.435Z,5.42
2019-05-02T05:03:51.241Z,5.38
2019-05-02T05:04:49.361Z,5.38
2019-05-02T05:05:48.242Z,5.43
2019-05-02T05:06:56.422Z,5.39
2019-05-02T05:07:49.307Z,5.38
2019-05-02T05:08:48.314Z,5.43
2019-05-02T05:09:47.871Z,5.38
2019-05-02T05:10:47.947Z,5.42
2019-05-02T05:11:48.189Z,5.36
2019-05-02T05:12:48.032Z,5.39
2019-05-02T05:13:47.906Z,5.38
2019-05-02T05:14:47.466Z,5.38
2019-05-02T05:15:49.483Z,5.42
2019-05-02T05:16:53.821Z,5.40
2019-05-02T05:17:47.916Z,5.42
2019-05-02T05:18:49.384Z,5.40
2019-05-02T05:19:48.374Z,5.38
2019-05-02T05:20:53.062Z,5.40
2019-05-02T05:21:47.646Z,5.43
2019-05-02T05:22:47.893Z,5.51
2019-05-02T05:23:47.191Z,5.57
2019-05-02T05:24:47.704Z,5.48
2019-05-02T05:25:47.883Z,5.51
2019-05-02T05:26:47.651Z,5.46
2019-05-02T05:27:47.927Z,5.53
2019-05-02T05:28:47.675Z,5.48
2019-05-02T05:29:48.591Z,5.49
2019-05-02T05:30:49.198Z,5.51
2019-05-02T05:31:48.282Z,5.54
2019-05-02T05:32:47.900Z,5.51
2019-05-02T05:33:47.896Z,5.53
2019-05-02T05:34:47.796Z,5.57
2019-05-02T05:35:48.764Z,5.54
2019-05-02T05:36:48.152Z,5.54
2019-05-02T05:37:49.145Z,5.48
2019-05-02T05:38:47.865Z,5.53
2019-05-02T05:39:48.705Z,5.56
2019-05-02T05:40:47.866Z,5.63
2019-05-02T05:41:50.519Z,5.60
2019-05-02T05:42:48.128Z,5.63
2019-05-02T05:43:50.112Z,5.64
2019-05-02T05:44:48.322Z,5.63
2019-05-02T05:45:53.301Z,5.76
2019-05-02T05:46:49.355Z,5.64
2019-05-02T05:47:47.879Z,5.72
2019-05-02T05:48:47.630Z,5.72
2019-05-02T05:49:47.725Z,5.78
2019-05-02T05:50:47.801Z,5.63
2019-05-02T05:51:47.502Z,5.67
2019-05-02T05:52:47.265Z,5.67
2019-05-02T05:53:47.873Z,5.79
2019-05-02T05:54:47.378Z,5.76
2019-05-02T05:55:47.420Z,5.81
2019-05-02T05:56:48.131Z,5.91
2019-05-02T05:57:47.594Z,5.93
2019-05-02T05:58:51.365Z,6.06
2019-05-02T05:59:48.418Z,6.03
2019-05-02T06:00:53.786Z,6.06
2019-05-02T06:01:48.369Z,6.14
2019-05-02T06:02:53.783Z,6.17
2019-05-02T06:03:47.424Z,6.19
2019-05-02T06:04:47.393Z,6.27
2019-05-02T06:05:47.749Z,6.27
2019-05-02T06:06:47.980Z,6.43
2019-05-02T06:07:47.421Z,6.33
2019-05-02T06:08:49.302Z,6.36
2019-05-02T06:09:47.062Z,6.44
2019-05-02T06:10:47.081Z,6.44
2019-05-02T06:11:50.689Z,6.48
2019-05-02T06:12:47.100Z,6.55
2019-05-02T06:13:48.923Z,6.64
2019-05-02T06:14:47.117Z,6.66
2019-05-02T06:15:47.133Z,6.66
2019-05-02T06:16:51.650Z,6.59
2019-05-02T06:17:47.149Z,6.62
2019-05-02T06:18:47.163Z,6.62
2019-05-02T06:19:48.292Z,6.69
2019-05-02T06:20:47.184Z,6.58
2019-05-02T06:21:47.205Z,6.66
2019-05-02T06:22:47.219Z,6.64
2019-05-02T06:23:47.246Z,6.71
2019-05-02T06:24:50.913Z,6.61
2019-05-02T06:25:47.242Z,6.74
2019-05-02T06:26:49.746Z,6.70
2019-05-02T06:27:47.266Z,6.80
2019-05-02T06:28:47.271Z,6.77
2019-05-02T06:29:51.235Z,6.69
2019-05-02T06:30:47.295Z,6.79
2019-05-02T06:31:47.313Z,6.76
2019-05-02T06:32:50.025Z,6.84
2019-05-02T06:33:47.332Z,6.88
2019-05-02T06:34:47.671Z,6.94
2019-05-02T06:35:47.351Z,6.95
2019-05-02T06:36:47.387Z,6.98
2019-05-02T06:37:50.121Z,6.97
2019-05-02T06:38:47.384Z,6.98
2019-05-02T06:39:47.393Z,7.16
2019-05-02T06:40:47.403Z,7.25
2019-05-02T06:41:47.418Z,7.28
2019-05-02T06:42:47.426Z,7.45
2019-05-02T06:43:48.302Z,7.61
2019-05-02T06:44:47.447Z,7.58
2019-05-02T06:45:47.459Z,7.75
2019-05-02T06:46:47.470Z,7.77
2019-05-02T06:47:47.479Z,7.93
2019-05-02T06:48:48.262Z,7.77
2019-05-02T06:49:47.503Z,7.82
2019-05-02T06:50:47.517Z,7.80
2019-05-02T06:51:51.067Z,7.77
2019-05-02T06:52:47.536Z,7.72
2019-05-02T06:53:48.955Z,7.69
2019-05-02T06:54:47.563Z,7.71
2019-05-02T06:55:47.575Z,7.67
2019-05-02T06:56:48.245Z,7.53
2019-05-02T06:57:47.593Z,7.49
2019-05-02T06:58:47.604Z,7.60
2019-05-02T06:59:49.940Z,7.40
2019-05-02T07:00:57.587Z,7.40
2019-05-02T07:01:47.658Z,7.28
2019-05-02T07:02:47.648Z,7.34
2019-05-02T07:03:47.667Z,7.39
2019-05-02T07:04:47.675Z,7.46
2019-05-02T07:05:49.209Z,7.49
2019-05-02T07:06:58.231Z,7.57
2019-05-02T07:07:47.714Z,7.57
2019-05-02T07:08:47.725Z,7.52
2019-05-02T07:09:47.756Z,7.58
2019-05-02T07:10:47.739Z,7.55
2019-05-02T07:11:56.879Z,7.57
2019-05-02T07:12:51.201Z,7.57
2019-05-02T07:13:47.779Z,7.60
2019-05-02T07:14:47.789Z,7.50
2019-05-02T07:15:48.619Z,7.42
2019-05-02T07:16:49.618Z,7.40
2019-05-02T07:17:47.816Z,7.45
2019-05-02T07:18:49.580Z,7.55
2019-05-02T07:19:47.838Z,7.46
2019-05-02T07:20:47.854Z,7.68
2019-05-02T07:21:47.861Z,7.68
2019-05-02T07:22:47.875Z,7.67
2019-05-02T07:23:48.542Z,7.72
2019-05-02T07:24:47.897Z,7.77
2019-05-02T07:25:47.908Z,7.82
2019-05-02T07:26:52.141Z,7.98
2019-05-02T07:27:47.927Z,7.87
2019-05-02T07:28:47.946Z,7.97
2019-05-02T07:29:52.203Z,7.98
2019-05-02T07:30:47.962Z,8.02
2019-05-02T07:31:48.931Z,7.98
2019-05-02T07:32:47.988Z,7.95
2019-05-02T07:33:48.002Z,7.98
2019-05-02T07:34:48.376Z,7.97
2019-05-02T07:35:48.018Z,7.98
2019-05-02T07:36:48.034Z,8.12
2019-05-02T07:37:48.813Z,8.20
2019-05-02T07:38:48.054Z,8.18
2019-05-02T07:39:48.075Z,8.22
2019-05-02T07:40:48.305Z,8.23
2019-05-02T07:41:48.087Z,8.29
2019-05-02T07:42:48.099Z,8.40
2019-05-02T07:43:52.042Z,8.43
2019-05-02T07:44:48.126Z,8.43
2019-05-02T07:45:48.134Z,8.16
2019-05-02T07:46:51.850Z,8.38
2019-05-02T07:47:48.156Z,8.61
2019-05-02T07:48:48.718Z,8.62
2019-05-02T07:49:48.184Z,8.38
2019-05-02T07:50:48.371Z,8.44
2019-05-02T07:51:52.445Z,8.59
2019-05-02T07:52:48.217Z,8.56
2019-05-02T07:53:48.735Z,8.59
2019-05-02T07:54:48.240Z,8.61
2019-05-02T07:55:49.243Z,8.77
2019-05-02T07:56:53.113Z,8.83
2019-05-02T07:57:48.273Z,8.80
2019-05-02T07:58:48.288Z,8.70
2019-05-02T07:59:49.910Z,8.59
2019-05-02T08:00:48.308Z,8.53
2019-05-02T08:01:49.655Z,8.63
2019-05-02T08:02:48.337Z,8.52
2019-05-02T08:03:48.345Z,8.55
2019-05-02T08:04:48.359Z,8.62
2019-05-02T08:05:48.370Z,8.71
2019-05-02T08:06:48.377Z,8.74
2019-05-02T08:07:53.293Z,8.99
2019-05-02T08:08:48.405Z,9.31
2019-05-02T08:09:48.417Z,8.98
2019-05-02T08:10:48.430Z,8.89
2019-05-02T08:11:48.436Z,8.79
2019-05-02T08:12:48.449Z,8.84
2019-05-02T08:13:49.482Z,8.74
2019-05-02T08:14:48.476Z,9.13
2019-05-02T08:15:50.734Z,9.36
2019-05-02T08:16:48.498Z,9.40
2019-05-02T08:17:53.356Z,9.56
2019-05-02T08:18:48.521Z,9.61
2019-05-02T08:19:48.529Z,9.79
2019-05-02T08:20:50.978Z,9.53
2019-05-02T08:21:48.554Z,9.40
2019-05-02T08:22:50.186Z,9.60
2019-05-02T08:23:48.580Z,9.81
2019-05-02T08:24:48.591Z,9.93
2019-05-02T08:25:48.604Z,9.96
2019-05-02T08:26:48.617Z,9.74
2019-05-02T08:27:48.626Z,9.42
2019-05-02T08:28:51.981Z,9.40
2019-05-02T08:29:48.648Z,9.71
2019-05-02T08:30:48.660Z,9.84
2019-05-02T08:31:48.672Z,9.75
2019-05-02T08:32:48.695Z,9.66
2019-05-02T08:33:48.696Z,9.65
2019-05-02T08:34:51.984Z,9.89
2019-05-02T08:35:48.720Z,9.96
2019-05-02T08:36:48.732Z,10.07
2019-05-02T08:37:48.747Z,10.02
2019-05-02T08:38:53.030Z,10.15
2019-05-02T08:39:48.777Z,10.33
2019-05-02T08:40:49.760Z,10.34
2019-05-02T08:41:51.174Z,10.29
2019-05-02T08:42:48.813Z,10.15
2019-05-02T08:43:48.816Z,10.23
2019-05-02T08:44:51.383Z,10.22
2019-05-02T08:45:48.846Z,10.29
2019-05-02T08:46:51.428Z,10.34
2019-05-02T08:47:48.872Z,10.34
2019-05-02T08:48:50.656Z,10.29
2019-05-02T08:49:49.380Z,10.70
2019-05-02T08:50:48.904Z,10.79
2019-05-02T08:51:48.918Z,10.60
2019-05-02T08:52:48.933Z,10.56
2019-05-02T08:53:52.046Z,10.67
2019-05-02T08:54:48.960Z,10.51
2019-05-02T08:55:48.972Z,10.36
2019-05-02T08:56:53.333Z,10.23
2019-05-02T08:57:48.999Z,10.20
2019-05-02T08:58:49.846Z,10.20
2019-05-02T08:59:49.018Z,10.15
2019-05-02T09:00:49.032Z,10.23
2019-05-02T09:01:49.656Z,10.08
2019-05-02T09:02:49.062Z,10.15
2019-05-02T09:03:55.052Z,10.12
2019-05-02T09:04:58.377Z,9.87
2019-05-02T09:05:49.094Z,9.32
2019-05-02T09:06:53.192Z,9.36
2019-05-02T09:07:49.124Z,9.91
2019-05-02T09:08:51.470Z,10.02
2019-05-02T09:09:49.146Z,10.22
2019-05-02T09:10:49.161Z,10.36
2019-05-02T09:12:04.916Z,10.68
2019-05-02T09:12:49.186Z,11.02
2019-05-02T09:13:49.194Z,11.40
2019-05-02T09:14:49.207Z,11.60
2019-05-02T09:15:51.459Z,11.79
2019-05-02T09:16:49.238Z,11.76
2019-05-02T09:17:54.826Z,11.52
2019-05-02T09:18:51.864Z,11.24
2019-05-02T09:20:00.370Z,11.09
2019-05-02T09:20:54.887Z,11.11
2019-05-02T09:21:49.298Z,11.06
2019-05-02T09:22:52.123Z,11.11
2019-05-02T09:23:49.328Z,11.02
2019-05-02T09:24:49.336Z,11.04
2019-05-02T09:25:49.352Z,10.74
2019-05-02T09:26:49.369Z,10.76
2019-05-02T09:27:49.373Z,11.03
2019-05-02T09:28:51.570Z,10.89
2019-05-02T09:29:49.403Z,11.02
2019-05-02T09:30:49.414Z,11.36
2019-05-02T09:31:49.426Z,11.55
2019-05-02T09:32:49.444Z,11.57
2019-05-02T09:33:49.458Z,11.27
2019-05-02T09:34:51.697Z,11.36
2019-05-02T09:35:51.505Z,11.44
2019-05-02T09:36:49.503Z,11.72
2019-05-02T09:37:49.511Z,11.54
2019-05-02T09:38:53.960Z,11.62
2019-05-02T09:39:49.532Z,11.19
2019-05-02T09:40:52.516Z,11.02
2019-05-02T09:41:49.561Z,11.21
2019-05-02T09:42:53.408Z,11.49
2019-05-02T09:43:49.590Z,11.52
2019-05-02T09:44:53.369Z,11.90
2019-05-02T09:45:51.845Z,12.13
2019-05-02T09:46:55.259Z,12.28
2019-05-02T09:47:59.599Z,12.64
2019-05-02T09:48:51.858Z,12.93
2019-05-02T09:49:52.558Z,12.09
2019-05-02T09:50:49.683Z,11.85
2019-05-02T09:51:50.330Z,11.62
2019-05-02T09:52:49.710Z,11.69
2019-05-02T09:53:52.199Z,11.85
2019-05-02T09:54:51.790Z,11.82
2019-05-02T09:55:55.117Z,11.33
2019-05-02T09:56:49.773Z,11.39
2019-05-02T09:57:51.784Z,11.39
2019-05-02T09:58:56.782Z,11.11
2019-05-02T09:59:50.586Z,11.02
2019-05-02T10:00:49.826Z,11.55
2019-05-02T10:01:49.845Z,11.58
2019-05-02T10:02:49.855Z,12.14
2019-05-02T10:03:51.798Z,12.16
2019-05-02T10:04:49.896Z,12.39
2019-05-02T10:05:49.904Z,12.07
2019-05-02T10:06:52.285Z,11.73
2019-05-02T10:07:49.933Z,11.75
2019-05-02T10:08:51.815Z,11.15
2019-05-02T10:09:51.796Z,11.51
2019-05-02T10:10:52.036Z,11.88
2019-05-02T10:11:49.981Z,11.95
2019-05-02T10:12:52.043Z,12.19
2019-05-02T10:13:51.883Z,12.16
2019-05-02T10:14:50.024Z,12.41
2019-05-02T10:15:50.042Z,12.54
2019-05-02T10:16:50.043Z,12.68
2019-05-02T10:17:51.930Z,12.90
2019-05-02T10:18:52.147Z,13.04
2019-05-02T10:19:54.958Z,12.37
2019-05-02T10:20:52.250Z,12.56
2019-05-02T10:21:54.283Z,12.45
2019-05-02T10:22:50.139Z,12.90
2019-05-02T10:23:51.816Z,13.33
2019-05-02T10:24:51.951Z,12.79
2019-05-02T10:25:51.971Z,12.93
2019-05-02T10:26:55.160Z,13.19
2019-05-02T10:27:51.987Z,13.05
2019-05-02T10:28:51.230Z,12.53
2019-05-02T10:29:52.344Z,12.65
2019-05-02T10:30:52.545Z,12.86
2019-05-02T10:31:52.472Z,12.75
2019-05-02T10:32:55.553Z,12.62
2019-05-02T10:33:50.285Z,12.74
2019-05-02T10:34:53.114Z,12.37
2019-05-02T10:35:52.286Z,12.38
2019-05-02T10:36:54.283Z,12.56
2019-05-02T10:37:52.079Z,11.94
2019-05-02T10:38:54.834Z,11.35
2019-05-02T10:39:52.194Z,11.67
2019-05-02T10:40:54.649Z,11.65
2019-05-02T10:41:52.496Z,11.76
2019-05-02T10:42:52.230Z,11.86
2019-05-02T10:43:52.016Z,12.32
2019-05-02T10:44:52.116Z,12.50
2019-05-02T10:45:52.734Z,12.21
2019-05-02T10:46:52.308Z,12.16
2019-05-02T10:47:52.558Z,11.78
2019-05-02T10:48:52.464Z,11.65
2019-05-02T10:49:52.588Z,11.80
2019-05-02T10:50:52.320Z,11.09
2019-05-02T10:51:51.818Z,11.29
2019-05-02T10:52:52.588Z,11.19
2019-05-02T10:53:52.721Z,11.17
2019-05-02T10:54:52.739Z,10.64
2019-05-02T10:55:52.279Z,10.88
2019-05-02T10:56:51.850Z,11.17
2019-05-02T10:57:52.556Z,11.51
2019-05-02T10:58:52.308Z,11.49
2019-05-02T10:59:52.518Z,11.60
2019-05-02T11:00:52.283Z,11.47
2019-05-02T11:01:52.180Z,11.80
2019-05-02T11:02:52.488Z,12.16
2019-05-02T11:03:51.674Z,12.50
2019-05-02T11:04:52.432Z,12.50
2019-05-02T11:05:52.806Z,12.10
2019-05-02T11:06:51.812Z,11.85
2019-05-02T11:07:52.278Z,12.07
2019-05-02T11:08:52.415Z,12.21
2019-05-02T11:09:52.534Z,12.29
2019-05-02T11:10:52.617Z,11.96
2019-05-02T11:11:51.970Z,11.67
2019-05-02T11:12:52.625Z,11.44
2019-05-02T11:13:55.388Z,11.65
2019-05-02T11:14:51.656Z,11.54
2019-05-02T11:15:52.474Z,11.85
2019-05-02T11:16:52.504Z,12.02
2019-05-02T11:17:52.961Z,12.16
2019-05-02T11:18:52.602Z,12.65
2019-05-02T11:19:52.314Z,13.12
2019-05-02T11:20:52.494Z,13.11
2019-05-02T11:21:56.351Z,13.04
2019-05-02T11:22:52.689Z,13.19
2019-05-02T11:23:52.611Z,13.30
2019-05-02T11:24:52.366Z,13.25
2019-05-02T11:25:52.609Z,13.05
2019-05-02T11:26:52.839Z,13.20
2019-05-02T11:27:52.478Z,12.92
2019-05-02T11:28:52.139Z,13.03
2019-05-02T11:29:52.611Z,13.00
2019-05-02T11:30:52.461Z,12.68
2019-05-02T11:31:52.062Z,12.50
2019-05-02T11:32:52.135Z,12.70
2019-05-02T11:33:52.650Z,12.77
2019-05-02T11:34:52.452Z,12.77
2019-05-02T11:35:53.455Z,12.82
2019-05-02T11:36:52.647Z,12.92
2019-05-02T11:37:51.715Z,13.10
2019-05-02T11:38:59.679Z,13.25
2019-05-02T11:39:57.809Z,13.00
2019-05-02T11:40:52.066Z,12.27
2019-05-02T11:41:52.751Z,11.99
2019-05-02T11:42:52.157Z,11.58
2019-05-02T11:43:54.130Z,11.47
2019-05-02T11:44:52.355Z,11.36
2019-05-02T11:45:54.209Z,11.46
2019-05-02T11:46:52.098Z,11.61
2019-05-02T11:47:54.452Z,11.51
2019-05-02T11:48:56.279Z,11.40
2019-05-02T11:49:55.766Z,11.42
2019-05-02T11:50:52.324Z,11.51
2019-05-02T11:51:55.373Z,11.78
2019-05-02T11:52:52.300Z,11.90
2019-05-02T11:53:52.706Z,11.85
2019-05-02T11:54:52.117Z,11.85
2019-05-02T11:55:53.239Z,11.62
2019-05-02T11:56:53.574Z,11.78
2019-05-02T11:57:52.338Z,11.82
2019-05-02T11:58:52.895Z,11.94
2019-05-02T11:59:52.056Z,11.99
2019-05-02T12:00:52.229Z,11.55
2019-05-02T12:01:59.765Z,11.69
2019-05-02T12:02:56.278Z,11.86
2019-05-02T12:03:52.456Z,11.49
2019-05-02T12:04:54.371Z,11.07
2019-05-02T12:05:52.396Z,10.96
2019-05-02T12:07:01.054Z,10.33
2019-05-02T12:07:52.667Z,10.08
2019-05-02T12:08:52.532Z,9.97
2019-05-02T12:09:56.863Z,10.01
2019-05-02T12:10:52.051Z,10.23
2019-05-02T12:11:55.173Z,10.45
2019-05-02T12:12:52.716Z,10.27
2019-05-02T12:13:55.452Z,10.29
2019-05-02T12:14:52.793Z,10.33
2019-05-02T12:15:52.062Z,10.12
2019-05-02T12:16:52.786Z,10.18
2019-05-02T12:17:51.827Z,10.14
2019-05-02T12:18:53.762Z,10.17
2019-05-02T12:19:52.366Z,9.75
2019-05-02T12:20:52.192Z,9.91
2019-05-02T12:21:52.846Z,10.01
2019-05-02T12:22:52.791Z,10.05
2019-05-02T12:23:52.625Z,9.96
2019-05-02T12:24:52.036Z,9.75
2019-05-02T12:25:52.175Z,9.54
2019-05-02T12:26:52.851Z,9.38
2019-05-02T12:27:52.683Z,9.48
2019-05-02T12:28:52.702Z,9.64
2019-05-02T12:29:57.639Z,9.75
2019-05-02T12:30:52.116Z,9.99
2019-05-02T12:31:56.292Z,10.12
2019-05-02T12:32:53.123Z,10.34
2019-05-02T12:33:52.057Z,10.48
2019-05-02T12:34:52.586Z,10.45
2019-05-02T12:35:52.601Z,10.47
2019-05-02T12:36:52.431Z,10.41
2019-05-02T12:37:55.161Z,10.36
2019-05-02T12:38:52.753Z,9.86
2019-05-02T12:39:52.135Z,9.78
2019-05-02T12:40:52.224Z,9.89
2019-05-02T12:41:53.759Z,9.91
2019-05-02T12:42:52.620Z,10.02
2019-05-02T12:43:52.528Z,10.23
2019-05-02T12:44:53.274Z,10.34
2019-05-02T12:45:52.678Z,10.30
2019-05-02T12:46:52.245Z,10.14
2019-05-02T12:47:52.390Z,10.08
2019-05-02T12:48:52.267Z,10.02
2019-05-02T12:49:52.274Z,10.07
2019-05-02T12:50:52.933Z,9.99
2019-05-02T12:51:52.605Z,10.07
2019-05-02T12:52:55.350Z,9.94
2019-05-02T12:53:52.988Z,9.79
2019-05-02T12:54:52.682Z,9.76
2019-05-02T12:55:52.779Z,9.97
2019-05-02T12:56:52.958Z,10.17
2019-05-02T12:57:52.489Z,9.91
2019-05-02T12:58:53.085Z,10.15
2019-05-02T12:59:52.610Z,10.29
2019-05-02T13:00:53.202Z,10.20
2019-05-02T13:01:52.445Z,10.18
2019-05-02T13:02:52.623Z,10.26
2019-05-02T13:03:52.471Z,10.34
2019-05-02T13:04:52.800Z,10.45
2019-05-02T13:05:52.496Z,10.52
2019-05-02T13:06:53.055Z,10.55
2019-05-02T13:07:55.392Z,10.74
2019-05-02T13:08:52.824Z,10.88
2019-05-02T13:09:52.879Z,11.03
2019-05-02T13:10:54.055Z,11.36